createdAt,value
2016-06-19T00:00:39.480Z,14.8
2016-06-19T00:01:39.468Z,14.75
2016-06-19T00:02:39.440Z,14.69
2016-06-19T00:03:39.413Z,14.75
2016-06-19T00:04:39.400Z,14.72
2016-06-19T00:05:39.373Z,14.74
2016-06-19T00:06:39.376Z,14.74
2016-06-19T00:07:39.333Z,14.68
2016-06-19T00:08:39.320Z,14.67
2016-06-19T00:09:39.292Z,14.69
2016-06-19T00:10:39.281Z,14.68
2016-06-19T00:11:39.252Z,14.69
2016-06-19T00:12:39.225Z,14.78
2016-06-19T00:13:39.213Z,14.72
2016-06-19T00:14:39.185Z,14.68
2016-06-19T00:15:39.173Z,14.71
2016-06-19T00:16:39.145Z,14.8
2016-06-19T00:17:39.133Z,14.72
2016-06-19T00:18:39.105Z,14.67
2016-06-19T00:19:39.093Z,14.65
2016-06-19T00:20:39.065Z,14.8
2016-06-19T00:21:39.038Z,14.72
2016-06-19T00:22:39.010Z,14.8
2016-06-19T00:23:38.997Z,14.72
2016-06-19T00:24:38.969Z,14.67
2016-06-19T00:25:38.957Z,14.71
2016-06-19T00:26:38.930Z,14.8
2016-06-19T00:27:38.902Z,14.67
2016-06-19T00:28:38.890Z,14.71
2016-06-19T00:29:38.861Z,14.74
2016-06-19T00:30:38.849Z,14.68
2016-06-19T00:31:38.822Z,14.74
2016-06-19T00:32:38.794Z,14.8
2016-06-19T00:33:38.767Z,14.78
2016-06-19T00:34:38.754Z,14.75
2016-06-19T00:35:38.727Z,14.75
2016-06-19T00:36:38.714Z,14.78
2016-06-19T00:37:38.734Z,14.74
2016-06-19T00:38:38.674Z,14.78
2016-06-19T00:39:38.052Z,14.72
2016-06-19T00:40:38.619Z,14.78
2016-06-19T00:41:38.606Z,14.71
2016-06-19T00:42:38.610Z,14.69
2016-06-19T00:43:38.552Z,14.71
2016-06-19T00:44:38.539Z,14.69
2016-06-19T00:45:38.512Z,14.68
2016-06-19T00:46:38.499Z,14.72
2016-06-19T00:47:38.471Z,14.75
2016-06-19T00:48:38.474Z,14.75
2016-06-19T00:49:38.431Z,14.8
2016-06-19T00:50:38.419Z,14.74
2016-06-19T00:51:38.391Z,14.83
2016-06-19T00:52:38.364Z,14.71
2016-06-19T00:53:38.336Z,14.71
2016-06-19T00:54:38.323Z,14.71
2016-06-19T00:55:38.295Z,14.71
2016-06-19T00:56:38.268Z,14.68
2016-06-19T00:57:38.256Z,14.74
2016-06-19T00:58:38.243Z,14.72
2016-06-19T00:59:38.216Z,14.62
2016-06-19T01:00:38.203Z,14.67
2016-06-19T01:01:38.192Z,14.67
2016-06-19T01:02:38.148Z,14.61
2016-06-19T01:03:38.121Z,14.56
2016-06-19T01:04:38.108Z,14.64
2016-06-19T01:05:38.080Z,14.57
2016-06-19T01:06:38.068Z,14.52
2016-06-19T01:07:38.040Z,14.53
2016-06-19T01:08:38.027Z,14.46
2016-06-19T01:09:37.984Z,14.54
2016-06-19T01:10:37.972Z,14.44
2016-06-19T01:11:37.960Z,14.5
2016-06-19T01:12:37.324Z,14.42
2016-06-19T01:13:37.905Z,14.42
2016-06-19T01:14:37.893Z,14.39
2016-06-19T01:15:37.865Z,14.49
2016-06-19T01:16:37.853Z,14.46
2016-06-19T01:17:37.825Z,14.39
2016-06-19T01:18:37.813Z,14.43
2016-06-19T01:19:37.785Z,14.42
2016-06-19T01:20:37.757Z,14.38
2016-06-19T01:21:37.730Z,14.32
2016-06-19T01:22:37.123Z,14.37
2016-06-19T01:23:37.689Z,14.39
2016-06-19T01:24:37.677Z,14.38
2016-06-19T01:25:37.650Z,14.28
2016-06-19T01:26:37.637Z,14.38
2016-06-19T01:27:37.594Z,14.28
2016-06-19T01:28:37.582Z,14.37
2016-06-19T01:29:37.569Z,14.28
2016-06-19T01:30:37.542Z,14.34
2016-06-19T01:31:37.515Z,14.27
2016-06-19T01:32:37.502Z,14.32
2016-06-19T01:33:37.474Z,14.25
2016-06-19T01:34:37.446Z,14.34
2016-06-19T01:35:37.434Z,14.25
2016-06-19T01:36:37.407Z,14.31
2016-06-19T01:37:37.378Z,14.17
2016-06-19T01:38:37.350Z,14.21
2016-06-19T01:39:37.338Z,14.12
2016-06-19T01:40:37.327Z,14.1
2016-06-19T01:41:37.299Z,14.12
2016-06-19T01:42:37.302Z,14.13
2016-06-19T01:43:37.259Z,14.12
2016-06-19T01:44:37.230Z,14.13
2016-06-19T01:45:37.219Z,14.09
2016-06-19T01:46:37.191Z,14.06
2016-06-19T01:47:37.178Z,13.99
2016-06-19T01:48:37.151Z,13.96
2016-06-19T01:49:37.123Z,13.96
2016-06-19T01:50:37.111Z,13.94
2016-06-19T01:51:37.067Z,13.91
2016-06-19T01:52:37.055Z,13.99
2016-06-19T01:53:37.028Z,13.91
2016-06-19T01:54:37.015Z,13.83
2016-06-19T01:55:36.991Z,13.79
2016-06-19T01:56:36.984Z,13.8
2016-06-19T01:57:36.959Z,13.79
2016-06-19T01:58:36.935Z,13.8
2016-06-19T01:59:36.925Z,13.8
2016-06-19T02:00:36.899Z,13.79
2016-06-19T02:01:36.889Z,13.79
2016-06-19T02:02:36.861Z,13.71
2016-06-19T02:03:36.852Z,13.74
2016-06-19T02:04:36.824Z,13.8
2016-06-19T02:05:36.782Z,13.84
2016-06-19T02:06:36.770Z,13.77
2016-06-19T02:07:36.743Z,13.76
2016-06-19T02:08:36.122Z,13.74
2016-06-19T02:09:36.704Z,13.76
2016-06-19T02:10:36.707Z,13.69
2016-06-19T02:11:36.664Z,13.73
2016-06-19T02:12:36.636Z,13.69
2016-06-19T02:13:36.623Z,13.7
2016-06-19T02:14:36.596Z,13.76
2016-06-19T02:15:36.569Z,13.74
2016-06-19T02:16:35.946Z,13.73
2016-06-19T02:17:36.528Z,13.69
2016-06-19T02:18:36.500Z,13.81
2016-06-19T02:19:36.489Z,13.69
2016-06-19T02:20:36.475Z,13.76
2016-06-19T02:21:36.448Z,13.76
2016-06-19T02:22:36.421Z,13.74
2016-06-19T02:23:36.392Z,13.76
2016-06-19T02:24:36.380Z,13.71
2016-06-19T02:25:36.384Z,13.77
2016-06-19T02:26:36.341Z,13.7
2016-06-19T02:27:36.313Z,13.74
2016-06-19T02:28:36.284Z,13.77
2016-06-19T02:29:36.257Z,13.81
2016-06-19T02:30:36.245Z,13.76
2016-06-19T02:31:36.217Z,13.76
2016-06-19T02:32:36.189Z,13.8
2016-06-19T02:33:36.177Z,13.79
2016-06-19T02:34:36.149Z,13.8
2016-06-19T02:35:36.153Z,13.79
2016-06-19T02:36:36.109Z,13.74
2016-06-19T02:37:36.081Z,13.79
2016-06-19T02:38:36.069Z,13.8
2016-06-19T02:39:36.041Z,13.79
2016-06-19T02:40:36.013Z,13.8
2016-06-19T02:41:36.001Z,13.81
2016-06-19T02:42:35.974Z,13.76
2016-06-19T02:43:35.961Z,13.8
2016-06-19T02:44:35.950Z,13.77
2016-06-19T02:45:35.906Z,13.71
2016-06-19T02:46:35.893Z,13.81
2016-06-19T02:47:35.866Z,13.84
2016-06-19T02:48:35.854Z,13.84
2016-06-19T02:49:35.810Z,13.81
2016-06-19T02:50:35.798Z,13.87
2016-06-19T02:51:35.161Z,13.79
2016-06-19T02:52:35.759Z,13.81
2016-06-19T02:53:35.730Z,13.88
2016-06-19T02:54:35.109Z,13.81
2016-06-19T02:55:35.707Z,13.84
2016-06-19T02:56:35.663Z,13.81
2016-06-19T02:57:35.666Z,13.8
2016-06-19T02:58:35.623Z,13.81
2016-06-19T02:59:35.596Z,13.8
2016-06-19T03:00:35.583Z,13.83
2016-06-19T03:01:35.570Z,13.83
2016-06-19T03:02:35.527Z,13.81
2016-06-19T03:03:35.515Z,13.81
2016-06-19T03:04:35.488Z,13.83
2016-06-19T03:05:35.459Z,13.81
2016-06-19T03:06:35.448Z,13.87
2016-06-19T03:07:35.419Z,13.84
2016-06-19T03:08:35.392Z,13.88
2016-06-19T03:09:35.380Z,13.81
2016-06-19T03:10:35.351Z,13.83
2016-06-19T03:11:35.340Z,13.81
2016-06-19T03:12:34.702Z,13.83
2016-06-19T03:13:35.284Z,13.87
2016-06-19T03:14:35.273Z,13.88
2016-06-19T03:15:35.244Z,13.81
2016-06-19T03:16:34.622Z,13.81
2016-06-19T03:17:35.204Z,13.79
2016-06-19T03:18:35.208Z,13.83
2016-06-19T03:19:35.195Z,13.83
2016-06-19T03:20:35.136Z,13.81
2016-06-19T03:21:35.109Z,13.81
2016-06-19T03:22:35.081Z,13.81
2016-06-19T03:23:35.068Z,13.77
2016-06-19T03:24:35.041Z,13.77
2016-06-19T03:25:35.014Z,13.79
2016-06-19T03:26:35.001Z,13.74
2016-06-19T03:27:34.973Z,13.73
2016-06-19T03:28:34.977Z,13.76
2016-06-19T03:29:34.949Z,13.69
2016-06-19T03:30:34.921Z,13.7
2016-06-19T03:31:34.893Z,13.76
2016-06-19T03:32:34.865Z,13.76
2016-06-19T03:33:34.853Z,13.69
2016-06-19T03:34:34.826Z,13.77
2016-06-19T03:35:34.798Z,13.73
2016-06-19T03:36:34.785Z,13.8
2016-06-19T03:37:34.148Z,13.67
2016-06-19T03:38:34.745Z,13.69
2016-06-19T03:39:34.718Z,13.74
2016-06-19T03:40:34.690Z,13.71
2016-06-19T03:41:34.678Z,13.7
2016-06-19T03:42:34.634Z,13.76
2016-06-19T03:43:34.623Z,13.71
2016-06-19T03:44:34.641Z,13.69
2016-06-19T03:45:34.566Z,13.71
2016-06-19T03:46:34.554Z,13.71
2016-06-19T03:47:34.543Z,13.67
2016-06-19T03:48:34.514Z,13.73
2016-06-19T03:49:34.487Z,13.73
2016-06-19T03:50:34.475Z,13.65
2016-06-19T03:51:34.446Z,13.65
2016-06-19T03:52:33.809Z,13.63
2016-06-19T03:53:34.408Z,13.7
2016-06-19T03:54:34.379Z,13.71
2016-06-19T03:55:34.367Z,13.71
2016-06-19T03:56:34.339Z,13.7
2016-06-19T03:57:34.327Z,13.69
2016-06-19T03:58:34.300Z,13.63
2016-06-19T03:59:34.256Z,13.71
2016-06-19T04:00:34.244Z,13.77
2016-06-19T04:01:34.231Z,13.73
2016-06-19T04:02:34.203Z,13.67
2016-06-19T04:03:34.176Z,13.73
2016-06-19T04:04:34.163Z,13.73
2016-06-19T04:05:34.136Z,13.73
2016-06-19T04:06:34.123Z,13.67
2016-06-19T04:07:34.096Z,13.67
2016-06-19T04:08:34.068Z,13.73
2016-06-19T04:09:34.056Z,13.74
2016-06-19T04:10:34.028Z,13.69
2016-06-19T04:11:34.001Z,13.73
2016-06-19T04:12:33.396Z,13.76
2016-06-19T04:13:33.965Z,13.79
2016-06-19T04:14:33.938Z,13.81
2016-06-19T04:15:33.943Z,13.83
2016-06-19T04:16:33.901Z,13.81
2016-06-19T04:17:33.920Z,13.87
2016-06-19T04:18:33.863Z,13.89
2016-06-19T04:19:33.835Z,13.95
2016-06-19T04:20:33.824Z,13.91
2016-06-19T04:21:33.797Z,13.94
2016-06-19T04:22:33.769Z,13.98
2016-06-19T04:23:33.756Z,13.92
2016-06-19T04:24:33.729Z,14.01
2016-06-19T04:25:33.701Z,14.07
2016-06-19T04:26:33.689Z,13.96
2016-06-19T04:27:33.661Z,14.01
2016-06-19T04:28:33.633Z,14.09
2016-06-19T04:29:33.621Z,14.07
2016-06-19T04:30:33.593Z,14.09
2016-06-19T04:31:33.581Z,14.01
2016-06-19T04:32:33.553Z,14.1
2016-06-19T04:33:33.525Z,14.16
2016-06-19T04:34:33.514Z,14.02
2016-06-19T04:35:33.470Z,14.12
2016-06-19T04:36:33.457Z,14.12
2016-06-19T04:37:33.430Z,14.19
2016-06-19T04:38:33.434Z,14.24
2016-06-19T04:39:33.405Z,14.28
2016-06-19T04:40:33.377Z,14.24
2016-06-19T04:41:33.350Z,14.28
2016-06-19T04:42:33.338Z,14.35
2016-06-19T04:43:33.310Z,14.34
2016-06-19T04:44:33.283Z,14.37
2016-06-19T04:45:33.269Z,14.42
2016-06-19T04:46:33.242Z,14.46
2016-06-19T04:47:33.231Z,14.47
2016-06-19T04:48:33.202Z,14.64
2016-06-19T04:49:32.565Z,14.57
2016-06-19T04:50:33.147Z,14.6
2016-06-19T04:51:33.165Z,14.56
2016-06-19T04:52:33.107Z,14.52
2016-06-19T04:53:33.094Z,14.68
2016-06-19T04:54:33.066Z,14.8
2016-06-19T04:55:33.039Z,14.84
2016-06-19T04:56:33.027Z,14.98
2016-06-19T04:57:33.015Z,15.24
2016-06-19T04:58:33.002Z,15.41
2016-06-19T04:59:32.959Z,15.84
2016-06-19T05:00:32.946Z,16.48
2016-06-19T05:01:32.919Z,17.17
2016-06-19T05:02:32.908Z,17.71
2016-06-19T05:03:32.895Z,18.1
2016-06-19T05:04:32.867Z,18.65
2016-06-19T05:05:32.839Z,18.83
2016-06-19T05:06:32.827Z,19.14
2016-06-19T05:07:32.800Z,19.11
2016-06-19T05:08:32.787Z,19.4
2016-06-19T05:09:32.774Z,19.02
2016-06-19T05:10:32.747Z,18.92
2016-06-19T05:11:32.735Z,18.84
2016-06-19T05:12:32.707Z,18.46
2016-06-19T05:13:32.695Z,18.1
2016-06-19T05:14:32.683Z,17.87
2016-06-19T05:15:32.655Z,17.71
2016-06-19T05:16:32.627Z,17.71
2016-06-19T05:17:32.615Z,17.85
2016-06-19T05:18:32.603Z,17.71
2016-06-19T05:19:32.575Z,17.79
2016-06-19T05:20:32.562Z,17.71
2016-06-19T05:21:32.535Z,17.62
2016-06-19T05:22:32.539Z,17.55
2016-06-19T05:23:32.511Z,17.5
2016-06-19T05:24:32.499Z,17.26
2016-06-19T05:25:32.471Z,17
2016-06-19T05:26:32.474Z,17.11
2016-06-19T05:27:32.431Z,16.89
2016-06-19T05:28:32.418Z,16.8
2016-06-19T05:29:32.391Z,16.81
2016-06-19T05:30:32.363Z,16.89
2016-06-19T05:31:32.350Z,16.78
2016-06-19T05:32:32.340Z,16.62
2016-06-19T05:33:31.701Z,16.62
2016-06-19T05:34:31.689Z,16.71
2016-06-19T05:35:32.272Z,16.68
2016-06-19T05:36:32.243Z,16.7
2016-06-19T05:37:32.232Z,16.78
2016-06-19T05:38:32.218Z,16.8
2016-06-19T05:39:31.597Z,16.7
2016-06-19T05:40:32.179Z,16.68
2016-06-19T05:41:32.168Z,16.63
2016-06-19T05:42:32.154Z,16.68
2016-06-19T05:43:32.112Z,16.6
2016-06-19T05:44:32.098Z,16.65
2016-06-19T05:45:32.087Z,16.65
2016-06-19T05:46:32.059Z,16.67
2016-06-19T05:47:32.047Z,16.62
2016-06-19T05:48:32.020Z,16.5
2016-06-19T05:49:32.006Z,16.38
2016-06-19T05:50:31.979Z,16.31
2016-06-19T05:51:31.967Z,16.25
2016-06-19T05:52:31.956Z,16.18
2016-06-19T05:53:31.926Z,16.23
2016-06-19T05:54:31.916Z,16.3
2016-06-19T05:55:31.886Z,16.27
2016-06-19T05:56:31.859Z,16.3
2016-06-19T05:57:31.848Z,16.27
2016-06-19T05:58:31.226Z,16.18
2016-06-19T05:59:31.808Z,16.31
2016-06-19T06:00:31.778Z,16.34
2016-06-19T06:01:31.782Z,16.53
2016-06-19T06:02:31.755Z,16.8
2016-06-19T06:03:31.727Z,16.86
2016-06-19T06:04:31.699Z,16.78
2016-06-19T06:05:31.671Z,16.77
2016-06-19T06:06:31.659Z,16.85
2016-06-19T06:07:31.647Z,17.57
2016-06-19T06:08:31.698Z,18.62
2016-06-19T06:09:31.607Z,18.06
2016-06-19T06:10:31.595Z,17.74
2016-06-19T06:11:31.567Z,17.74
2016-06-19T06:12:31.571Z,17.64
2016-06-19T06:13:31.528Z,17.59
2016-06-19T06:14:31.516Z,17.64
2016-06-19T06:15:31.488Z,17.78
2016-06-19T06:16:31.475Z,18.34
2016-06-19T06:17:31.448Z,18.43
2016-06-19T06:18:31.435Z,19.2
2016-06-19T06:19:31.407Z,19.87
2016-06-19T06:20:31.411Z,20.09
2016-06-19T06:21:31.383Z,20.99
2016-06-19T06:22:31.371Z,20.96
2016-06-19T06:23:30.749Z,20.99
2016-06-19T06:24:31.331Z,20.81
2016-06-19T06:25:31.320Z,20.74
2016-06-19T06:26:31.290Z,20.77
2016-06-19T06:27:31.279Z,20.65
2016-06-19T06:28:31.273Z,20.66
2016-06-19T06:29:31.251Z,20.64
2016-06-19T06:30:31.261Z,20.41
2016-06-19T06:31:31.254Z,20.54
2016-06-19T06:32:31.231Z,20.51
2016-06-19T06:33:31.221Z,20.59
2016-06-19T06:34:31.196Z,20.72
2016-06-19T06:35:31.186Z,20.74
2016-06-19T06:36:31.177Z,20.66
2016-06-19T06:37:31.166Z,20.56
2016-06-19T06:38:31.139Z,20.69
2016-06-19T06:39:30.519Z,20.42
2016-06-19T06:40:31.117Z,20.27
2016-06-19T06:41:31.105Z,20.02
2016-06-19T06:42:31.094Z,19.91
2016-06-19T06:43:31.065Z,20.15
2016-06-19T06:44:31.054Z,20.1
2016-06-19T06:45:31.041Z,20.18
2016-06-19T06:46:31.015Z,20.49
2016-06-19T06:47:31.002Z,20.24
2016-06-19T06:48:31.005Z,20.12
2016-06-19T06:49:30.978Z,20.1
2016-06-19T06:50:30.950Z,20.18
2016-06-19T06:51:30.984Z,21.39
2016-06-19T06:52:30.925Z,22.06
2016-06-19T06:53:30.897Z,22.77
2016-06-19T06:54:30.917Z,23.6
2016-06-19T06:55:30.873Z,23.89
2016-06-19T06:56:30.861Z,23.9
2016-06-19T06:57:30.849Z,24.14
2016-06-19T06:58:30.837Z,24.13
2016-06-19T06:59:30.809Z,24.49
2016-06-19T07:00:30.797Z,23.95
2016-06-19T07:01:30.784Z,23.61
2016-06-19T07:02:30.787Z,23.4
2016-06-19T07:03:30.760Z,23.23
2016-06-19T07:04:30.748Z,22.9
2016-06-19T07:05:30.736Z,22.84
2016-06-19T07:06:30.723Z,22.64
2016-06-19T07:07:30.712Z,22.49
2016-06-19T07:08:30.700Z,22.39
2016-06-19T07:09:30.077Z,22.34
2016-06-19T07:10:30.675Z,22.01
2016-06-19T07:11:30.647Z,21.79
2016-06-19T07:12:30.635Z,21.78
2016-06-19T07:13:30.623Z,21.72
2016-06-19T07:14:30.626Z,21.63
2016-06-19T07:15:30.598Z,21.64
2016-06-19T07:16:30.585Z,21.59
2016-06-19T07:17:30.574Z,21.59
2016-06-19T07:18:30.562Z,21.61
2016-06-19T07:19:30.565Z,21.59
2016-06-19T07:20:30.522Z,20.91
2016-06-19T07:21:30.526Z,21.04
2016-06-19T07:22:30.497Z,20.99
2016-06-19T07:23:30.485Z,21.04
2016-06-19T07:24:30.457Z,21.45
2016-06-19T07:25:30.446Z,22.6
2016-06-19T07:26:30.449Z,23.39
2016-06-19T07:27:30.421Z,24.19
2016-06-19T07:28:30.410Z,24.35
2016-06-19T07:29:30.396Z,24.95
2016-06-19T07:30:30.369Z,25
2016-06-19T07:31:30.373Z,25.82
2016-06-19T07:32:30.345Z,26.39
2016-06-19T07:33:30.349Z,26.84
2016-06-19T07:34:30.320Z,27.2
2016-06-19T07:35:30.324Z,27.31
2016-06-19T07:36:30.327Z,27.51
2016-06-19T07:37:30.283Z,26.99
2016-06-19T07:38:29.678Z,27.41
2016-06-19T07:39:30.275Z,27.51
2016-06-19T07:40:30.279Z,27.17
2016-06-19T07:41:30.266Z,26.61
2016-06-19T07:42:30.239Z,25.72
2016-06-19T07:43:30.242Z,25.01
2016-06-19T07:44:30.214Z,24.29
2016-06-19T07:45:30.233Z,23.95
2016-06-19T07:46:30.222Z,23.82
2016-06-19T07:47:30.193Z,23.68
2016-06-19T07:48:30.197Z,23.42
2016-06-19T07:49:30.200Z,23.12
2016-06-19T07:50:29.563Z,22.83
2016-06-19T07:51:30.144Z,22.64
2016-06-19T07:52:30.148Z,22.43
2016-06-19T07:53:30.136Z,22.19
2016-06-19T07:54:30.139Z,21.99
2016-06-19T07:55:30.096Z,21.81
2016-06-19T07:56:30.099Z,21.67
2016-06-19T07:57:30.103Z,21.42
2016-06-19T07:58:30.060Z,21.35
2016-06-19T07:59:30.048Z,21.21
2016-06-19T08:00:30.035Z,20.99
2016-06-19T08:01:30.007Z,20.76
2016-06-19T08:02:29.995Z,20.76
2016-06-19T08:03:29.983Z,20.64
2016-06-19T08:04:29.971Z,20.28
2016-06-19T08:05:29.959Z,20.3
2016-06-19T08:06:29.931Z,20.35
2016-06-19T08:07:29.920Z,20.12
2016-06-19T08:08:29.906Z,19.98
2016-06-19T08:09:29.880Z,19.87
2016-06-19T08:10:29.882Z,19.83
2016-06-19T08:11:29.855Z,19.93
2016-06-19T08:12:29.858Z,19.93
2016-06-19T08:13:29.830Z,19.78
2016-06-19T08:14:29.819Z,19.8
2016-06-19T08:15:29.790Z,19.78
2016-06-19T08:16:29.779Z,19.93
2016-06-19T08:17:29.781Z,19.84
2016-06-19T08:18:29.738Z,19.93
2016-06-19T08:19:29.726Z,19.88
2016-06-19T08:20:29.714Z,19.83
2016-06-19T08:21:29.702Z,19.9
2016-06-19T08:22:29.674Z,19.79
2016-06-19T08:23:29.662Z,19.66
2016-06-19T08:24:29.650Z,19.66
2016-06-19T08:25:29.668Z,19.79
2016-06-19T08:26:29.610Z,19.94
2016-06-19T08:27:29.597Z,20.02
2016-06-19T08:28:29.570Z,20.18
2016-06-19T08:29:29.557Z,20.02
2016-06-19T08:30:29.546Z,20
2016-06-19T08:31:29.533Z,20.05
2016-06-19T08:32:29.537Z,19.61
2016-06-19T08:33:29.509Z,19.8
2016-06-19T08:34:29.481Z,19.73
2016-06-19T08:35:29.453Z,19.65
2016-06-19T08:36:29.441Z,19.65
2016-06-19T08:37:29.429Z,19.69
2016-06-19T08:38:29.401Z,19.55
2016-06-19T08:39:28.795Z,19.68
2016-06-19T08:40:29.377Z,19.58
2016-06-19T08:41:29.365Z,19.65
2016-06-19T08:42:29.352Z,19.55
2016-06-19T08:43:29.324Z,19.58
2016-06-19T08:44:29.330Z,19.58
2016-06-19T08:45:29.306Z,19.57
2016-06-19T08:46:29.280Z,19.42
2016-06-19T08:47:29.286Z,19.31
2016-06-19T08:48:29.246Z,19.31
2016-06-19T08:49:29.251Z,19.35
2016-06-19T08:50:29.223Z,19.36
2016-06-19T08:51:29.213Z,19.4
2016-06-19T08:52:28.592Z,19.39
2016-06-19T08:53:29.175Z,19.39
2016-06-19T08:54:29.163Z,19.35
2016-06-19T08:55:29.136Z,19.35
2016-06-19T08:56:28.531Z,19.35
2016-06-19T08:57:29.112Z,19.39
2016-06-19T08:58:29.101Z,19.2
2016-06-19T08:59:29.073Z,18.92
2016-06-19T09:00:29.061Z,18.76
2016-06-19T09:01:29.049Z,18.61
2016-06-19T09:02:29.021Z,18.57
2016-06-19T09:03:29.009Z,18.61
2016-06-19T09:04:28.996Z,18.74
2016-06-19T09:05:28.969Z,18.73
2016-06-19T09:06:28.972Z,18.62
2016-06-19T09:07:28.945Z,18.73
2016-06-19T09:08:28.916Z,18.65
2016-06-19T09:09:28.905Z,18.5
2016-06-19T09:10:28.892Z,18.47
2016-06-19T09:11:28.864Z,18.33
2016-06-19T09:12:28.852Z,18.37
2016-06-19T09:13:28.840Z,18.36
2016-06-19T09:14:28.812Z,18.28
2016-06-19T09:15:28.784Z,18.07
2016-06-19T09:16:28.788Z,17.99
2016-06-19T09:17:28.792Z,18.1
2016-06-19T09:18:28.123Z,18.19
2016-06-19T09:19:28.127Z,18.19
2016-06-19T09:20:28.708Z,18.17
2016-06-19T09:21:28.681Z,18.22
2016-06-19T09:22:28.652Z,18.25
2016-06-19T09:23:28.640Z,18.34
2016-06-19T09:24:28.628Z,18.44
2016-06-19T09:25:28.600Z,18.49
2016-06-19T09:26:28.589Z,18.61
2016-06-19T09:27:28.576Z,18.65
2016-06-19T09:28:28.564Z,18.74
2016-06-19T09:29:28.535Z,18.72
2016-06-19T09:30:28.524Z,18.7
2016-06-19T09:31:28.512Z,18.74
2016-06-19T09:32:28.485Z,18.91
2016-06-19T09:33:28.472Z,19.11
2016-06-19T09:34:28.460Z,19.21
2016-06-19T09:35:28.416Z,19.18
2016-06-19T09:36:28.420Z,18.91
2016-06-19T09:37:28.391Z,18.76
2016-06-19T09:38:28.380Z,18.61
2016-06-19T09:39:28.352Z,18.62
2016-06-19T09:40:28.339Z,18.49
2016-06-19T09:41:28.327Z,18.5
2016-06-19T09:42:28.300Z,18.39
2016-06-19T09:43:28.303Z,18.39
2016-06-19T09:44:28.291Z,18.61
2016-06-19T09:45:28.263Z,18.68
2016-06-19T09:46:28.236Z,18.8
2016-06-19T09:47:28.208Z,19.01
2016-06-19T09:48:28.211Z,19.15
2016-06-19T09:49:28.183Z,19.25
2016-06-19T09:50:28.155Z,19.46
2016-06-19T09:51:27.534Z,19.46
2016-06-19T09:52:28.116Z,19.87
2016-06-19T09:53:28.119Z,19.94
2016-06-19T09:54:28.107Z,20.46
2016-06-19T09:55:28.079Z,20.62
2016-06-19T09:56:27.442Z,20.41
2016-06-19T09:57:27.446Z,20.65
2016-06-19T09:58:28.027Z,20.68
2016-06-19T09:59:28.000Z,20.89
2016-06-19T10:00:27.987Z,20.96
2016-06-19T10:01:27.974Z,21.16
2016-06-19T10:02:27.963Z,21.16
2016-06-19T10:03:27.951Z,21.26
2016-06-19T10:04:27.938Z,21.46
2016-06-19T10:05:27.926Z,21.51
2016-06-19T10:06:27.883Z,21.66
2016-06-19T10:07:27.870Z,21.79
2016-06-19T10:08:27.859Z,21.78
2016-06-19T10:09:27.846Z,21.78
2016-06-19T10:10:27.834Z,21.78
2016-06-19T10:11:27.822Z,21.85
2016-06-19T10:12:27.809Z,21.98
2016-06-19T10:13:27.782Z,22.02
2016-06-19T10:14:27.160Z,21.9
2016-06-19T10:15:27.773Z,21.81
2016-06-19T10:16:27.729Z,22.04
2016-06-19T10:17:27.124Z,21.92
2016-06-19T10:18:27.721Z,21.75
2016-06-19T10:19:27.694Z,21.51
2016-06-19T10:20:27.681Z,21.45
2016-06-19T10:21:27.716Z,21.44
2016-06-19T10:22:27.641Z,21.35
2016-06-19T10:23:27.629Z,21.3
2016-06-19T10:24:27.617Z,21.24
2016-06-19T10:25:27.635Z,20.98
2016-06-19T10:26:27.608Z,20.76
2016-06-19T10:27:27.564Z,20.54
2016-06-19T10:28:27.553Z,20.54
2016-06-19T10:29:27.571Z,20.34
2016-06-19T10:30:27.513Z,20.09
2016-06-19T10:31:27.517Z,19.97
2016-06-19T10:32:27.614Z,19.91
2016-06-19T10:33:27.477Z,19.66
2016-06-19T10:34:27.464Z,19.57
2016-06-19T10:35:26.842Z,19.5
2016-06-19T10:36:27.424Z,19.35
2016-06-19T10:37:26.802Z,19.25
2016-06-19T10:38:27.399Z,19.13
2016-06-19T10:39:27.372Z,18.97
2016-06-19T10:40:27.359Z,18.94
2016-06-19T10:41:27.348Z,18.86
2016-06-19T10:42:27.320Z,18.8
2016-06-19T10:43:27.323Z,18.68
2016-06-19T10:44:27.281Z,18.73
2016-06-19T10:45:27.283Z,18.67
2016-06-19T10:46:27.255Z,18.76
2016-06-19T10:47:27.243Z,18.76
2016-06-19T10:48:27.215Z,18.8
2016-06-19T10:49:27.313Z,18.83
2016-06-19T10:50:27.191Z,18.9
2016-06-19T10:51:27.164Z,19.02
2016-06-19T10:52:27.135Z,18.97
2016-06-19T10:53:27.124Z,19.13
2016-06-19T10:54:27.111Z,19.17
2016-06-19T10:55:26.489Z,19.2
2016-06-19T10:56:27.071Z,19.29
2016-06-19T10:57:27.059Z,19.25
2016-06-19T10:58:27.032Z,19.2
2016-06-19T10:59:27.019Z,19.2
2016-06-19T11:00:27.007Z,19.15
2016-06-19T11:01:26.981Z,19.08
2016-06-19T11:02:26.971Z,19.17
2016-06-19T11:03:26.960Z,19.14
2016-06-19T11:04:26.934Z,19.2
2016-06-19T11:05:26.938Z,19.24
2016-06-19T11:06:26.910Z,19.29
2016-06-19T11:07:26.883Z,19.35
2016-06-19T11:08:26.262Z,19.4
2016-06-19T11:09:26.844Z,19.54
2016-06-19T11:10:26.848Z,19.63
2016-06-19T11:11:26.821Z,19.46
2016-06-19T11:12:26.794Z,19.66
2016-06-19T11:13:26.781Z,19.79
2016-06-19T11:14:26.786Z,19.76
2016-06-19T11:15:26.774Z,19.93
2016-06-19T11:16:26.761Z,20.33
2016-06-19T11:17:26.718Z,20.62
2016-06-19T11:18:26.690Z,20.89
2016-06-19T11:19:26.678Z,20.8
2016-06-19T11:20:26.666Z,20.8
2016-06-19T11:21:26.654Z,20.83
2016-06-19T11:22:26.657Z,20.77
2016-06-19T11:23:26.614Z,21.04
2016-06-19T11:24:26.008Z,21.13
2016-06-19T11:25:26.573Z,21.2
2016-06-19T11:26:26.562Z,21.2
2016-06-19T11:27:26.550Z,21.24
2016-06-19T11:28:26.537Z,21.19
2016-06-19T11:29:26.556Z,21.16
2016-06-19T11:30:26.497Z,21.19
2016-06-19T11:31:26.500Z,21.21
2016-06-19T11:32:25.864Z,21.16
2016-06-19T11:33:26.461Z,21.17
2016-06-19T11:34:26.432Z,21.16
2016-06-19T11:35:26.421Z,21.19
2016-06-19T11:36:26.408Z,20.77
2016-06-19T11:37:25.787Z,20.65
2016-06-19T11:38:26.353Z,20.59
2016-06-19T11:39:26.341Z,20.58
2016-06-19T11:40:26.344Z,20.39
2016-06-19T11:41:26.331Z,20.49
2016-06-19T11:42:26.305Z,20.41
2016-06-19T11:43:26.292Z,20.42
2016-06-19T11:44:26.280Z,20.41
2016-06-19T11:45:26.268Z,20.08
2016-06-19T11:46:26.224Z,20.28
2016-06-19T11:47:26.228Z,20.2
2016-06-19T11:48:26.200Z,20.12
2016-06-19T11:49:26.187Z,20.38
2016-06-19T11:50:26.176Z,20.49
2016-06-19T11:51:26.163Z,20.56
2016-06-19T11:52:26.135Z,20.62
2016-06-19T11:53:26.124Z,20.66
2016-06-19T11:54:26.096Z,20.58
2016-06-19T11:55:26.084Z,20.28
2016-06-19T11:56:26.087Z,20.34
2016-06-19T11:57:26.045Z,20.34
2016-06-19T11:58:26.031Z,20.46
2016-06-19T11:59:26.019Z,20.16
2016-06-19T12:00:25.992Z,20.12
2016-06-19T12:01:25.979Z,20.28
2016-06-19T12:02:25.967Z,20.24
2016-06-19T12:03:25.971Z,20.27
2016-06-19T12:04:25.928Z,20.15
2016-06-19T12:05:25.931Z,20.15
2016-06-19T12:06:25.903Z,20.3
2016-06-19T12:07:25.891Z,20.41
2016-06-19T12:08:25.864Z,20.47
2016-06-19T12:09:25.835Z,20.53
2016-06-19T12:10:25.839Z,20.33
2016-06-19T12:11:25.810Z,20.61
2016-06-19T12:12:25.815Z,20.47
2016-06-19T12:13:25.771Z,20.43
2016-06-19T12:14:25.759Z,20.69
2016-06-19T12:15:25.746Z,21.05
2016-06-19T12:16:25.735Z,20.93
2016-06-19T12:17:25.722Z,21.29
2016-06-19T12:18:25.710Z,21.64
2016-06-19T12:19:25.682Z,21.76
2016-06-19T12:20:25.655Z,21.95
2016-06-19T12:21:25.643Z,22.12
2016-06-19T12:22:25.645Z,22.16
2016-06-19T12:23:25.618Z,22.09
2016-06-19T12:24:25.606Z,21.97
2016-06-19T12:25:25.594Z,21.76
2016-06-19T12:26:25.566Z,21.91
2016-06-19T12:27:25.554Z,22.01
2016-06-19T12:28:25.526Z,22.14
2016-06-19T12:29:25.530Z,22.12
2016-06-19T12:30:25.502Z,21.82
2016-06-19T12:31:25.489Z,21.78
2016-06-19T12:32:25.477Z,21.88
2016-06-19T12:33:25.450Z,22.09
2016-06-19T12:34:24.828Z,22.06
2016-06-19T12:35:25.425Z,22.13
2016-06-19T12:36:25.413Z,22.02
2016-06-19T12:37:25.385Z,22.1
2016-06-19T12:38:25.374Z,22.27
2016-06-19T12:39:25.360Z,22.44
2016-06-19T12:40:25.333Z,22.32
2016-06-19T12:41:25.322Z,22.27
2016-06-19T12:42:25.325Z,22.43
2016-06-19T12:43:24.704Z,22.6
2016-06-19T12:44:24.691Z,22.72
2016-06-19T12:45:25.273Z,22.8
2016-06-19T12:46:24.650Z,22.83
2016-06-19T12:47:25.232Z,22.8
2016-06-19T12:48:25.221Z,22.57
2016-06-19T12:49:25.208Z,22.57
2016-06-19T12:50:25.195Z,22.38
2016-06-19T12:51:24.559Z,22.5
2016-06-19T12:52:25.171Z,22.31
2016-06-19T12:53:25.144Z,22.07
2016-06-19T12:54:25.117Z,22.04
2016-06-19T12:55:25.104Z,22.16